Time;durP1;ratioP1;P1;durP2;ratioP2;P2;SDS_P1;SDS_P2;PMS_P1;PMS_P2;Temp;Humidity;BMP_temperature;BMP_pressure;BME280_temperature;BME280_humidity;BME280_pressure;Samples;Min_cycle;Max_cycle;Signal;HPM_P1;HPM_P2
2021/07/04 00:00:35;;;;;;;0.40;0.40;;;24.50;66.30;;;;;;4994058;28;20026;-25
2021/07/04 00:03:01;;;;;;;0.30;0.30;;;24.50;66.00;;;;;;4992884;28;20580;-18
2021/07/04 00:05:34;;;;;;;0.40;0.40;;;24.60;65.80;;;;;;4983814;28;20053;-18
2021/07/04 00:08:00;;;;;;;0.75;0.40;;;24.50;65.80;;;;;;4993704;28;20117;-23
2021/07/04 00:10:27;;;;;;;0.55;0.47;;;24.50;65.90;;;;;;4994092;28;20113;-18
2021/07/04 00:12:53;;;;;;;0.50;0.50;;;24.50;65.90;;;;;;4977142;28;20052;-18
2021/07/04 00:15:20;;;;;;;0.43;0.40;;;24.50;65.80;;;;;;4994412;28;20485;-18
2021/07/04 00:17:46;;;;;;;0.93;0.60;;;24.50;65.90;;;;;;4994382;28;20034;-18
2021/07/04 00:20:13;;;;;;;0.55;0.55;;;24.60;65.90;;;;;;4994462;28;20105;-21
2021/07/04 00:22:40;;;;;;;0.40;0.40;;;24.50;65.90;;;;;;4993063;28;20065;-18
2021/07/04 00:25:07;;;;;;;0.40;0.40;;;24.60;65.80;;;;;;4993783;28;20019;-18
2021/07/04 00:27:32;;;;;;;0.55;0.45;;;24.60;65.70;;;;;;4993400;28;20049;-18
2021/07/04 00:29:58;;;;;;;0.50;0.50;;;24.60;65.80;;;;;;4993577;28;20018;-19
2021/07/04 00:32:24;;;;;;;0.50;0.50;;;24.50;66.00;;;;;;4994140;28;20071;-20
2021/07/04 00:34:49;;;;;;;0.73;0.60;;;24.60;65.80;;;;;;4993655;28;20030;-20
2021/07/04 00:37:15;;;;;;;0.45;0.43;;;24.60;65.60;;;;;;4993816;28;20486;-19
2021/07/04 00:39:40;;;;;;;0.45;0.45;;;24.60;65.70;;;;;;4993097;28;20030;-19
2021/07/04 00:42:06;;;;;;;0.77;0.50;;;24.50;65.80;;;;;;4993545;28;20038;-19
2021/07/04 00:44:32;;;;;;;0.52;0.52;;;24.40;66.90;;;;;;4993942;28;20072;-22
2021/07/04 00:46:57;;;;;;;0.80;0.60;;;24.50;66.30;;;;;;4993627;28;20118;-20
2021/07/04 00:49:23;;;;;;;0.50;0.40;;;24.40;66.10;;;;;;4992788;28;20108;-19
2021/07/04 00:51:48;;;;;;;0.50;0.40;;;24.50;66.30;;;;;;4993251;28;20030;-19
2021/07/04 00:54:14;;;;;;;1.17;0.57;;;24.40;66.50;;;;;;4993235;28;20101;-19
2021/07/04 00:56:39;;;;;;;0.47;0.47;;;24.40;66.40;;;;;;4976223;28;20022;-22
2021/07/04 00:59:05;;;;;;;0.40;0.40;;;24.50;67.00;;;;;;4991802;28;20023;-20
2021/07/04 01:01:31;;;;;;;0.32;0.32;;;24.40;66.30;;;;;;4981051;28;20394;-23
2021/07/04 01:03:56;;;;;;;0.40;0.40;;;24.40;66.10;;;;;;4993043;28;20118;-19
2021/07/04 01:06:22;;;;;;;0.57;0.50;;;24.40;66.30;;;;;;4992618;28;20473;-19
2021/07/04 01:08:47;;;;;;;0.50;0.50;;;24.40;66.30;;;;;;4971914;28;20035;-19
2021/07/04 01:11:13;;;;;;;1.00;0.50;;;24.40;66.40;;;;;;4980048;28;20449;-19
2021/07/04 01:13:38;;;;;;;0.60;0.55;;;24.40;66.50;;;;;;4992939;28;20035;-20
2021/07/04 01:16:04;;;;;;;0.40;0.40;;;24.40;66.10;;;;;;4976863;28;20503;-19
2021/07/04 01:18:30;;;;;;;0.50;0.50;;;24.40;66.70;;;;;;4992908;28;20030;-19
2021/07/04 01:20:58;;;;;;;0.40;0.40;;;24.40;66.30;;;;;;4975598;28;20077;-19
2021/07/04 01:23:24;;;;;;;0.40;0.40;;;24.40;66.10;;;;;;4992719;28;20444;-29
2021/07/04 01:25:52;;;;;;;0.40;0.40;;;24.40;66.30;;;;;;4992698;28;20026;-24
2021/07/04 01:28:18;;;;;;;0.60;0.60;;;24.40;66.20;;;;;;4980448;28;20548;-24
2021/07/04 01:30:48;;;;;;;0.60;0.40;;;24.40;66.30;;;;;;4992584;28;20022;-21
2021/07/04 01:33:14;;;;;;;0.73;0.50;;;24.40;66.30;;;;;;4992241;28;20378;-20
2021/07/04 01:35:39;;;;;;;0.40;0.40;;;24.40;66.20;;;;;;4986565;28;20499;-27
2021/07/04 01:38:05;;;;;;;0.40;0.30;;;24.50;66.20;;;;;;4992064;28;20038;-18
2021/07/04 01:40:31;;;;;;;0.77;0.47;;;24.40;66.30;;;;;;4992081;28;20178;-23
2021/07/04 01:42:57;;;;;;;0.63;0.60;;;24.40;66.30;;;;;;4992224;28;20042;-19
2021/07/04 01:45:23;;;;;;;0.75;0.57;;;24.40;66.30;;;;;;4991875;28;20429;-19
2021/07/04 01:47:50;;;;;;;0.73;0.50;;;24.40;66.50;;;;;;4992188;28;20046;-19
2021/07/04 01:50:23;;;;;;;0.32;0.30;;;24.30;66.80;;;;;;4992745;28;20050;-28
2021/07/04 01:52:49;;;;;;;0.68;0.68;;;24.30;66.60;;;;;;4992423;28;20032;-19
2021/07/04 01:55:15;;;;;;;0.43;0.43;;;24.40;66.50;;;;;;4992210;28;20034;-19
2021/07/04 01:57:41;;;;;;;0.50;0.50;;;24.30;66.70;;;;;;4991679;28;20419;-19
2021/07/04 02:00:12;;;;;;;0.50;0.50;;;24.30;66.80;;;;;;4991964;28;20521;-24
2021/07/04 02:02:38;;;;;;;0.75;0.68;;;24.30;66.80;;;;;;4975227;28;20038;-19
2021/07/04 02:05:05;;;;;;;0.60;0.60;;;24.40;66.50;;;;;;4992164;28;20509;-19
2021/07/04 02:07:30;;;;;;;0.60;0.60;;;24.30;66.70;;;;;;4991708;28;20092;-28
2021/07/04 02:09:56;;;;;;;0.80;0.50;;;24.30;66.70;;;;;;4991043;28;20019;-21
2021/07/04 02:12:21;;;;;;;0.40;0.40;;;24.30;66.70;;;;;;4991887;28;20088;-22
2021/07/04 02:14:47;;;;;;;0.30;0.30;;;24.30;67.60;;;;;;4992066;28;20080;-20
2021/07/04 02:17:13;;;;;;;0.80;0.60;;;24.30;66.60;;;;;;4992211;28;20117;-19
2021/07/04 02:19:39;;;;;;;0.80;0.30;;;24.30;66.60;;;;;;4991504;28;20033;-21
2021/07/04 02:22:05;;;;;;;0.75;0.50;;;24.30;66.50;;;;;;4991458;28;20497;-19
2021/07/04 02:24:31;;;;;;;0.50;0.50;;;24.40;66.30;;;;;;4991889;28;20061;-22
2021/07/04 02:26:56;;;;;;;0.73;0.50;;;24.40;66.50;;;;;;4991099;28;20032;-18
2021/07/04 02:29:22;;;;;;;0.50;0.50;;;24.30;66.70;;;;;;4978549;28;20157;-19
2021/07/04 02:31:48;;;;;;;0.55;0.50;;;24.40;66.50;;;;;;4992011;28;20041;-19
2021/07/04 02:34:13;;;;;;;0.45;0.45;;;24.30;66.50;;;;;;4991579;28;20444;-19
2021/07/04 02:36:39;;;;;;;0.63;0.63;;;24.30;66.50;;;;;;4991076;28;20043;-19
2021/07/04 02:39:04;;;;;;;0.85;0.45;;;24.30;66.60;;;;;;4974838;28;20118;-19
2021/07/04 02:41:31;;;;;;;0.60;0.57;;;24.30;66.50;;;;;;4992161;28;20034;-22
2021/07/04 02:43:56;;;;;;;0.47;0.47;;;24.30;66.40;;;;;;4991849;28;20039;-19
2021/07/04 02:46:22;;;;;;;0.60;0.60;;;24.40;66.60;;;;;;4991608;28;20409;-19
2021/07/04 02:48:47;;;;;;;0.50;0.50;;;24.30;66.70;;;;;;4991750;28;20023;-19
2021/07/04 02:51:13;;;;;;;0.47;0.47;;;24.30;67.50;;;;;;4991093;28;20101;-19
2021/07/04 02:53:38;;;;;;;0.60;0.50;;;24.30;66.50;;;;;;4991816;28;20390;-19
2021/07/04 02:56:04;;;;;;;0.40;0.40;;;24.30;66.60;;;;;;4973993;28;20109;-19
2021/07/04 02:58:30;;;;;;;0.40;0.40;;;24.30;66.70;;;;;;4990592;28;20023;-18
2021/07/04 03:00:55;;;;;;;0.30;0.30;;;24.20;66.70;;;;;;4983880;28;20026;-18
2021/07/04 03:03:21;;;;;;;0.30;0.30;;;24.30;66.70;;;;;;4991455;28;20054;-22
2021/07/04 03:05:46;;;;;;;0.40;0.40;;;24.30;66.80;;;;;;4991813;28;20042;-18
2021/07/04 03:08:12;;;;;;;0.55;0.55;;;24.30;66.80;;;;;;4988521;28;20412;-20
2021/07/04 03:10:37;;;;;;;0.93;0.50;;;24.20;66.70;;;;;;4991064;28;20604;-18
2021/07/04 03:13:03;;;;;;;0.32;0.32;;;24.30;66.90;;;;;;4991224;28;20072;-18
2021/07/04 03:15:29;;;;;;;0.57;0.57;;;24.20;66.80;;;;;;4991593;28;20100;-19
2021/07/04 03:17:54;;;;;;;0.40;0.40;;;24.30;66.70;;;;;;4991166;28;20511;-19
2021/07/04 03:20:20;;;;;;;0.32;0.32;;;24.30;66.70;;;;;;4992907;28;20022;-19
2021/07/04 03:22:46;;;;;;;0.73;0.50;;;24.20;66.50;;;;;;4994503;28;20035;-18
2021/07/04 03:25:12;;;;;;;0.63;0.60;;;24.20;66.70;;;;;;4994480;28;20030;-19
2021/07/04 03:27:38;;;;;;;0.57;0.43;;;24.30;66.60;;;;;;4994519;28;20400;-20
2021/07/04 03:30:05;;;;;;;0.68;0.60;;;24.30;66.70;;;;;;4994794;28;20489;-19
2021/07/04 03:32:30;;;;;;;0.60;0.55;;;24.20;66.80;;;;;;4995370;28;20054;-19
2021/07/04 03:34:56;;;;;;;0.82;0.52;;;24.20;66.90;;;;;;4994293;28;20097;-21
2021/07/04 03:37:22;;;;;;;0.60;0.55;;;24.20;66.90;;;;;;4993493;28;20070;-19
2021/07/04 03:39:47;;;;;;;0.63;0.40;;;24.20;66.90;;;;;;4994440;28;20018;-19
2021/07/04 03:42:13;;;;;;;0.40;0.40;;;24.20;67.00;;;;;;4994799;28;20109;-19
2021/07/04 03:44:39;;;;;;;0.50;0.50;;;24.20;67.00;;;;;;4995241;28;20033;-19
2021/07/04 03:47:04;;;;;;;0.50;0.40;;;24.20;67.10;;;;;;4994098;28;20528;-19
2021/07/04 03:49:30;;;;;;;0.40;0.40;;;24.20;67.00;;;;;;4994152;28;20041;-18
2021/07/04 03:51:55;;;;;;;0.50;0.50;;;24.20;67.00;;;;;;4994144;28;20022;-18
2021/07/04 03:54:21;;;;;;;0.43;0.43;;;24.20;66.90;;;;;;4994218;28;20034;-19
2021/07/04 03:56:46;;;;;;;0.30;0.30;;;24.20;67.00;;;;;;4993470;28;20118;-19
2021/07/04 03:59:12;;;;;;;0.57;0.40;;;24.10;67.20;;;;;;4993979;28;20066;-21
2021/07/04 04:01:38;;;;;;;0.55;0.55;;;24.10;67.10;;;;;;4993117;28;20019;-19
2021/07/04 04:04:03;;;;;;;0.47;0.45;;;24.20;67.20;;;;;;4992033;28;20049;-19
2021/07/04 04:06:29;;;;;;;2.47;0.60;;;24.10;67.10;;;;;;4991960;28;20042;-19
2021/07/04 04:08:55;;;;;;;0.30;0.30;;;24.20;67.10;;;;;;4993028;28;20030;-21
2021/07/04 04:11:20;;;;;;;0.82;0.57;;;24.10;67.30;;;;;;4991929;28;20023;-19
2021/07/04 04:13:46;;;;;;;0.47;0.47;;;24.10;67.20;;;;;;4994058;28;20026;-19
2021/07/04 04:16:11;;;;;;;0.45;0.40;;;24.10;67.20;;;;;;4993302;28;20030;-20
2021/07/04 04:18:37;;;;;;;1.35;0.45;;;24.10;67.10;;;;;;4993788;28;20023;-19
2021/07/04 04:21:04;;;;;;;0.50;0.50;;;24.10;67.20;;;;;;4992880;28;20073;-19
2021/07/04 04:23:30;;;;;;;0.52;0.40;;;24.10;67.20;;;;;;4994337;28;20497;-27
2021/07/04 04:25:55;;;;;;;0.57;0.57;;;24.10;67.20;;;;;;4993030;28;20030;-20
2021/07/04 04:28:21;;;;;;;0.30;0.30;;;24.10;67.20;;;;;;4992483;28;20042;-20
2021/07/04 04:30:47;;;;;;;0.60;0.60;;;24.10;67.20;;;;;;4992037;28;20397;-18
2021/07/04 04:33:12;;;;;;;0.50;0.40;;;24.10;67.10;;;;;;4990514;28;20113;-17
2021/07/04 04:35:38;;;;;;;0.50;0.50;;;24.10;67.00;;;;;;4993535;28;20030;-19
2021/07/04 04:38:03;;;;;;;0.32;0.30;;;24.10;67.20;;;;;;4992440;28;20117;-19
2021/07/04 04:40:29;;;;;;;0.40;0.40;;;24.10;67.20;;;;;;4992277;28;20027;-19
2021/07/04 04:42:54;;;;;;;0.40;0.30;;;24.10;67.30;;;;;;4992831;28;20113;-19
2021/07/04 04:45:20;;;;;;;1.17;0.50;;;24.10;67.20;;;;;;4992338;28;20537;-19
2021/07/04 04:47:46;;;;;;;0.32;0.32;;;24.10;67.20;;;;;;4991652;28;20030;-21
2021/07/04 04:50:11;;;;;;;0.35;0.35;;;24.10;67.30;;;;;;4967789;28;20063;-17
2021/07/04 04:52:37;;;;;;;0.40;0.40;;;24.10;67.20;;;;;;4991647;28;20026;-18
2021/07/04 04:55:04;;;;;;;0.65;0.47;;;24.10;67.20;;;;;;4991489;28;20058;-18
2021/07/04 04:57:30;;;;;;;0.30;0.30;;;24.00;67.40;;;;;;4993136;28;20022;-18
2021/07/04 04:59:55;;;;;;;0.40;0.40;;;24.00;67.20;;;;;;4992221;28;20449;-18
2021/07/04 05:02:21;;;;;;;0.35;0.35;;;24.00;67.30;;;;;;4993269;28;20040;-27
2021/07/04 05:04:46;;;;;;;0.45;0.40;;;24.00;67.40;;;;;;4977868;28;20077;-18
2021/07/04 05:07:12;;;;;;;0.30;0.30;;;24.00;67.20;;;;;;4992630;28;20550;-24
2021/07/04 05:09:37;;;;;;;0.40;0.40;;;24.00;67.20;;;;;;4992861;28;20065;-25
2021/07/04 05:12:03;;;;;;;0.43;0.40;;;24.00;67.20;;;;;;4992744;28;20520;-18
2021/07/04 05:14:29;;;;;;;0.43;0.43;;;24.00;67.40;;;;;;4993399;28;20030;-18
2021/07/04 05:16:55;;;;;;;0.75;0.40;;;24.00;67.30;;;;;;4993321;28;20022;-23
2021/07/04 05:19:20;;;;;;;0.50;0.50;;;24.00;67.30;;;;;;4993296;28;20026;-21
2021/07/04 05:21:46;;;;;;;0.52;0.35;;;24.00;67.30;;;;;;4992679;28;20180;-19
2021/07/04 05:24:12;;;;;;;0.32;0.32;;;24.00;67.20;;;;;;4993077;28;20038;-24
2021/07/04 05:26:38;;;;;;;0.20;0.20;;;24.00;67.40;;;;;;4977187;28;20053;-18
2021/07/04 05:29:04;;;;;;;0.30;0.30;;;24.00;67.40;;;;;;4992147;28;20030;-18
2021/07/04 05:31:29;;;;;;;0.32;0.30;;;24.00;67.40;;;;;;4991517;28;20029;-17
2021/07/04 05:33:55;;;;;;;0.43;0.40;;;24.00;67.40;;;;;;4991652;28;20073;-24
2021/07/04 05:36:21;;;;;;;0.22;0.22;;;24.00;67.30;;;;;;4992265;28;20596;-27
2021/07/04 05:38:46;;;;;;;0.40;0.40;;;24.00;67.30;;;;;;4992620;28;20105;-18
2021/07/04 05:41:13;;;;;;;0.40;0.40;;;24.00;67.40;;;;;;4992514;28;20037;-17
2021/07/04 05:43:39;;;;;;;0.40;0.40;;;24.00;67.60;;;;;;4991534;28;20046;-18
2021/07/04 05:46:05;;;;;;;0.30;0.30;;;24.00;67.50;;;;;;4990765;28;20489;-20
2021/07/04 05:48:30;;;;;;;0.30;0.30;;;24.00;67.50;;;;;;4971245;28;20052;-19
2021/07/04 05:50:56;;;;;;;0.63;0.40;;;23.90;67.50;;;;;;4990915;28;20493;-20
2021/07/04 05:53:22;;;;;;;0.88;0.40;;;23.90;67.60;;;;;;4991606;28;20034;-19
2021/07/04 05:55:47;;;;;;;0.20;0.20;;;24.00;67.50;;;;;;4992046;28;20081;-21
2021/07/04 05:58:13;;;;;;;0.32;0.32;;;24.00;67.60;;;;;;4992460;28;20041;-21
2021/07/04 06:00:39;;;;;;;0.40;0.40;;;23.90;67.30;;;;;;4991732;28;20026;-19
2021/07/04 06:03:05;;;;;;;0.40;0.30;;;24.00;67.60;;;;;;4991617;28;20420;-20
2021/07/04 06:05:30;;;;;;;0.32;0.32;;;23.90;67.60;;;;;;4991365;28;20042;-23
2021/07/04 06:07:56;;;;;;;0.30;0.30;;;23.90;68.40;;;;;;4991539;28;20095;-22
2021/07/04 06:10:21;;;;;;;0.52;0.50;;;24.00;67.50;;;;;;4991799;28;20458;-18
2021/07/04 06:12:47;;;;;;;0.30;0.30;;;24.00;67.50;;;;;;4991507;28;20030;-19
2021/07/04 06:15:12;;;;;;;0.43;0.30;;;23.90;67.50;;;;;;4991774;28;20027;-27
2021/07/04 06:17:38;;;;;;;0.30;0.30;;;23.90;67.50;;;;;;4992242;28;20037;-19
2021/07/04 06:20:08;;;;;;;0.35;0.30;;;24.00;67.40;;;;;;4991469;28;20034;-19
2021/07/04 06:22:35;;;;;;;0.30;0.30;;;24.00;67.50;;;;;;4991234;28;20042;-24
2021/07/04 06:25:01;;;;;;;0.30;0.30;;;24.00;67.50;;;;;;4991709;28;20026;-20
2021/07/04 06:27:27;;;;;;;0.25;0.25;;;24.00;67.50;;;;;;4992007;28;20034;-20
2021/07/04 06:29:52;;;;;;;0.30;0.30;;;24.00;67.50;;;;;;4991067;28;20049;-20
2021/07/04 06:32:18;;;;;;;3.33;0.30;;;23.90;67.50;;;;;;4991296;28;20105;-19
2021/07/04 06:34:44;;;;;;;0.38;0.38;;;24.00;67.50;;;;;;4991518;28;20049;-18
2021/07/04 06:37:09;;;;;;;0.45;0.40;;;23.90;67.50;;;;;;4991394;28;20018;-21
2021/07/04 06:39:35;;;;;;;0.30;0.30;;;23.90;67.60;;;;;;4974438;28;20041;-23
2021/07/04 06:42:00;;;;;;;0.32;0.30;;;24.00;67.50;;;;;;4992124;28;20032;-20
2021/07/04 06:44:26;;;;;;;0.45;0.40;;;24.00;67.50;;;;;;4992613;28;20545;-24
2021/07/04 06:46:52;;;;;;;0.40;0.40;;;24.00;67.50;;;;;;4992086;28;20032;-18
2021/07/04 06:49:17;;;;;;;0.63;0.38;;;23.90;67.50;;;;;;4991137;28;20030;-19
2021/07/04 06:51:43;;;;;;;0.30;0.30;;;23.90;67.60;;;;;;4991031;28;20019;-18
2021/07/04 06:54:08;;;;;;;0.35;0.20;;;24.00;67.80;;;;;;4991680;28;20026;-19
2021/07/04 06:56:34;;;;;;;0.38;0.35;;;23.90;67.60;;;;;;4994289;28;20039;-22
2021/07/04 06:59:00;;;;;;;0.30;0.30;;;24.00;67.60;;;;;;4994992;28;20030;-18
2021/07/04 07:01:25;;;;;;;0.63;0.50;;;23.90;67.80;;;;;;5009973;28;20041;-18
2021/07/04 07:03:51;;;;;;;0.28;0.28;;;23.90;67.70;;;;;;4994580;28;20034;-19
2021/07/04 07:06:17;;;;;;;1.48;0.30;;;23.90;67.80;;;;;;4991828;28;20401;-18
2021/07/04 07:08:43;;;;;;;0.30;0.30;;;24.00;67.80;;;;;;4995288;28;20030;-28
2021/07/04 07:11:08;;;;;;;0.63;0.30;;;23.90;67.80;;;;;;4995469;28;20412;-18
2021/07/04 07:13:34;;;;;;;0.50;0.40;;;23.90;68.00;;;;;;4994220;28;20109;-21
2021/07/04 07:16:00;;;;;;;0.52;0.40;;;23.90;67.90;;;;;;4994280;28;20161;-23
2021/07/04 07:18:25;;;;;;;1.80;0.30;;;23.90;68.00;;;;;;4993571;28;20030;-21
2021/07/04 07:20:51;;;;;;;0.35;0.30;;;23.90;68.20;;;;;;4990559;28;20057;-20
2021/07/04 07:23:16;;;;;;;0.30;0.30;;;23.90;68.40;;;;;;4994756;28;20037;-19
2021/07/04 07:25:42;;;;;;;0.30;0.30;;;23.90;68.90;;;;;;4991372;28;20038;-20
2021/07/04 07:28:07;;;;;;;0.20;0.20;;;24.00;68.60;;;;;;4985420;28;20058;-23
2021/07/04 07:30:33;;;;;;;0.30;0.30;;;24.00;68.60;;;;;;4982720;28;20400;-21
2021/07/04 07:32:59;;;;;;;1.15;0.40;;;24.00;68.60;;;;;;4954472;28;20030;-28
2021/07/04 07:35:24;;;;;;;1.67;0.30;;;24.00;68.20;;;;;;4985389;28;20027;-22
2021/07/04 07:37:52;;;;;;;0.40;0.40;;;24.00;68.60;;;;;;4983775;28;20113;-21
2021/07/04 07:40:17;;;;;;;0.25;0.25;;;24.00;68.70;;;;;;4985190;28;20018;-21
2021/07/04 07:42:43;;;;;;;0.35;0.30;;;24.00;68.80;;;;;;4982721;28;20041;-23
2021/07/04 07:45:09;;;;;;;0.20;0.20;;;24.00;68.60;;;;;;4982857;28;20385;-21
2021/07/04 07:47:35;;;;;;;2.05;0.22;;;24.00;69.00;;;;;;4980076;28;20037;-22
2021/07/04 07:50:01;;;;;;;0.30;0.30;;;24.00;69.00;;;;;;4965186;28;20030;-22
2021/07/04 07:52:28;;;;;;;0.28;0.28;;;24.00;68.90;;;;;;4975761;28;20032;-19
2021/07/04 07:54:54;;;;;;;0.63;0.40;;;24.00;68.90;;;;;;4980485;28;20030;-20
2021/07/04 07:57:19;;;;;;;0.30;0.28;;;24.10;68.70;;;;;;4981388;28;20084;-21
2021/07/04 07:59:45;;;;;;;0.28;0.28;;;24.10;68.80;;;;;;4982375;28;20057;-20
2021/07/04 08:02:10;;;;;;;0.20;0.20;;;24.00;68.40;;;;;;4975652;28;20421;-23
2021/07/04 08:04:43;;;;;;;0.58;0.30;;;24.10;68.90;;;;;;4888767;28;10001303;-20
2021/07/04 08:07:09;;;;;;;0.40;0.40;;;24.20;68.60;;;;;;4959626;28;20382;-26
2021/07/04 08:09:35;;;;;;;0.80;0.47;;;24.20;68.40;;;;;;4982601;28;20018;-23
2021/07/04 08:12:00;;;;;;;1.02;0.30;;;24.30;68.30;;;;;;4980997;28;20026;-21
2021/07/04 08:14:26;;;;;;;2.25;0.40;;;24.40;68.60;;;;;;4981701;28;20521;-21
2021/07/04 08:16:51;;;;;;;0.40;0.40;;;24.40;67.80;;;;;;4977184;28;20031;-24
2021/07/04 08:19:17;;;;;;;0.50;0.40;;;24.30;68.00;;;;;;4983091;28;20033;-21
2021/07/04 08:21:43;;;;;;;0.40;0.40;;;24.20;67.70;;;;;;4980474;28;20095;-33
2021/07/04 08:24:09;;;;;;;0.50;0.50;;;24.20;67.90;;;;;;4980884;28;20509;-24
2021/07/04 08:26:35;;;;;;;2.35;0.47;;;24.20;68.00;;;;;;4968804;28;20085;-25
2021/07/04 08:29:01;;;;;;;0.77;0.50;;;24.20;68.30;;;;;;4972840;28;20030;-30
2021/07/04 08:31:27;;;;;;;1.17;0.57;;;24.20;68.30;;;;;;4979878;28;20027;-27
2021/07/04 08:33:52;;;;;;;0.75;0.50;;;24.10;68.40;;;;;;4975778;28;20054;-23
2021/07/04 08:36:18;;;;;;;0.80;0.65;;;24.10;68.40;;;;;;4974007;28;20673;-23
2021/07/04 08:38:44;;;;;;;0.98;0.65;;;24.10;68.40;;;;;;4980990;28;20030;-21
2021/07/04 08:41:10;;;;;;;0.70;0.65;;;24.10;68.40;;;;;;4974955;28;20675;-23
2021/07/04 08:43:36;;;;;;;2.40;0.65;;;24.10;68.40;;;;;;4967509;28;20104;-31
2021/07/04 08:46:04;;;;;;;1.23;0.52;;;24.00;68.40;;;;;;4984154;28;20030;-25
2021/07/04 08:48:31;;;;;;;0.93;0.60;;;24.00;68.50;;;;;;4975564;28;20054;-21
2021/07/04 08:50:57;;;;;;;1.10;0.77;;;24.10;68.30;;;;;;4982472;28;20497;-26
2021/07/04 08:53:22;;;;;;;1.80;0.65;;;24.10;68.20;;;;;;4977300;28;20035;-21
2021/07/04 08:55:48;;;;;;;1.08;0.70;;;24.20;68.00;;;;;;4974727;28;20489;-21
2021/07/04 08:58:18;;;;;;;1.17;0.65;;;24.20;68.00;;;;;;4970215;28;20466;-22
2021/07/04 09:00:44;;;;;;;1.50;0.98;;;24.20;67.90;;;;;;4979829;28;20073;-24
2021/07/04 09:03:25;;;;;;;1.48;0.90;;;24.20;68.40;;;;;;4953382;28;20823;-35
2021/07/04 09:05:51;;;;;;;1.27;0.98;;;24.30;67.50;;;;;;4965639;28;20105;-40
2021/07/04 09:08:18;;;;;;;1.45;0.82;;;24.40;67.50;;;;;;4965580;28;20828;-28
2021/07/04 09:10:44;;;;;;;1.88;0.80;;;24.40;67.30;;;;;;4965051;28;20040;-34
2021/07/04 09:13:26;;;;;;;1.20;0.75;;;24.40;67.10;;;;;;4963935;28;22013;-34
2021/07/04 09:16:10;;;;;;;1.50;0.80;;;24.40;67.10;;;;;;4954657;28;20553;-40
2021/07/04 09:18:37;;;;;;;1.60;0.75;;;24.40;67.10;;;;;;4964553;28;20043;-30
2021/07/04 09:21:18;;;;;;;0.88;0.82;;;24.40;66.80;;;;;;4965865;28;20093;-28
2021/07/04 09:23:44;;;;;;;0.90;0.77;;;24.30;67.00;;;;;;4965833;28;20047;-29
2021/07/04 09:26:38;;;;;;;1.70;0.82;;;24.30;66.70;;;;;;4968394;28;20417;-26
2021/07/04 09:29:05;;;;;;;1.75;1.13;;;24.30;66.70;;;;;;4967836;28;20031;-22
2021/07/04 09:31:30;;;;;;;1.38;1.05;;;24.30;66.70;;;;;;4966415;28;20680;-39
2021/07/04 09:34:09;;;;;;;1.33;0.80;;;24.30;66.80;;;;;;4965068;28;20038;-32
2021/07/04 09:36:38;;;;;;;1.00;0.80;;;24.40;66.30;;;;;;4964494;28;20499;-33
2021/07/04 09:39:20;;;;;;;1.30;0.90;;;24.20;67.00;;;;;;4964924;28;20039;-32
2021/07/04 09:42:05;;;;;;;0.98;0.77;;;24.10;67.20;;;;;;4964594;28;20054;-22
2021/07/04 09:44:32;;;;;;;1.48;0.80;;;24.20;67.40;;;;;;4962480;28;20529;-20
2021/07/04 09:47:15;;;;;;;2.83;1.00;;;24.30;66.70;;;;;;4964387;28;20096;-21
2021/07/04 09:49:41;;;;;;;1.52;0.90;;;24.40;67.00;;;;;;4965140;28;20065;-19
2021/07/04 09:52:18;;;;;;;2.30;1.25;;;24.40;67.00;;;;;;4963434;28;21380;-19
2021/07/04 09:54:56;;;;;;;2.08;1.70;;;24.40;66.90;;;;;;4964520;28;20124;-19
2021/07/04 09:57:22;;;;;;;2.65;2.45;;;24.30;67.10;;;;;;4964259;28;20069;-21
2021/07/04 09:59:47;;;;;;;7.35;5.22;;;24.30;67.40;;;;;;4955464;28;20121;-27
2021/07/04 10:02:18;;;;;;;9.50;8.38;;;24.60;67.50;;;;;;4970131;28;20789;-20
2021/07/04 10:04:44;;;;;;;12.40;10.52;;;24.70;66.90;;;;;;4965760;28;20051;-27
2021/07/04 10:07:10;;;;;;;13.85;11.65;;;24.60;66.30;;;;;;4964456;28;20085;-33
2021/07/04 10:09:35;;;;;;;15.35;11.20;;;24.50;66.50;;;;;;4965986;28;20045;-22
2021/07/04 10:12:01;;;;;;;19.33;12.60;;;24.50;66.30;;;;;;4963869;28;20592;-23
2021/07/04 10:14:27;;;;;;;13.27;10.30;;;24.50;65.90;;;;;;4964707;28;20125;-25
2021/07/04 10:16:52;;;;;;;13.85;10.75;;;24.40;65.70;;;;;;4965427;28;20049;-22
2021/07/04 10:19:25;;;;;;;13.85;10.07;;;24.40;65.30;;;;;;4965061;28;20063;-40
2021/07/04 10:21:55;;;;;;;14.35;10.23;;;24.40;65.30;;;;;;4964170;28;20065;-42
2021/07/04 10:24:21;;;;;;;14.52;10.98;;;24.50;65.00;;;;;;4954487;28;20122;-21
2021/07/04 10:26:47;;;;;;;12.77;10.25;;;24.50;64.70;;;;;;4954049;28;20118;-30
2021/07/04 10:29:13;;;;;;;15.10;10.75;;;24.60;64.40;;;;;;4965180;28;20050;-23
2021/07/04 10:31:38;;;;;;;11.32;9.43;;;24.60;64.50;;;;;;4970440;28;20038;-35
2021/07/04 10:34:12;;;;;;;10.90;8.80;;;24.70;64.30;;;;;;4959562;28;20707;-23
2021/07/04 10:36:56;;;;;;;11.95;9.50;;;24.70;64.30;;;;;;4960025;28;20409;-33
2021/07/04 10:39:22;;;;;;;10.40;8.85;;;24.80;63.70;;;;;;4971607;28;20038;-41
2021/07/04 10:42:02;;;;;;;12.32;9.80;;;24.80;64.20;;;;;;4958895;28;20113;-38
2021/07/04 10:44:45;;;;;;;11.52;9.82;;;24.80;63.10;;;;;;4970676;28;20534;-22
2021/07/04 10:47:12;;;;;;;8.85;7.90;;;24.70;63.40;;;;;;4972677;28;20065;-35
2021/07/04 10:49:40;;;;;;;8.57;7.10;;;24.70;63.40;;;;;;4972392;28;20050;-29
2021/07/04 10:52:34;;;;;;;6.97;6.28;;;24.60;63.40;;;;;;4971884;28;20109;-34
2021/07/04 10:55:00;;;;;;;5.72;5.10;;;24.60;63.40;;;;;;4972662;28;20048;-34
2021/07/04 10:57:36;;;;;;;4.75;4.35;;;24.50;62.80;;;;;;4968420;28;20031;-22
2021/07/04 11:00:05;;;;;;;4.05;3.65;;;24.60;62.30;;;;;;4970063;28;20038;-23
2021/07/04 11:02:46;;;;;;;3.65;3.25;;;24.50;62.00;;;;;;4967306;28;20036;-21
2021/07/04 11:05:26;;;;;;;3.65;2.85;;;24.50;62.20;;;;;;4968805;28;20058;-21
2021/07/04 11:07:54;;;;;;;2.92;2.35;;;24.50;62.10;;;;;;4970238;28;20038;-26
2021/07/04 11:10:27;;;;;;;2.22;2.03;;;24.50;62.00;;;;;;4970897;28;20516;-20
2021/07/04 11:12:54;;;;;;;1.77;1.67;;;24.50;61.90;;;;;;4956010;28;20026;-20
2021/07/04 11:15:20;;;;;;;1.55;1.40;;;24.50;61.70;;;;;;4969735;28;20492;-20
2021/07/04 11:18:01;;;;;;;1.50;1.40;;;24.50;61.00;;;;;;4968284;28;20510;-20
2021/07/04 11:20:33;;;;;;;1.25;1.10;;;24.50;60.50;;;;;;4969454;28;20034;-20
2021/07/04 11:23:03;;;;;;;2.70;1.20;;;24.50;60.00;;;;;;4967320;28;20051;-23
2021/07/04 11:26:20;;;;;;;0.80;0.80;;;24.60;59.70;;;;;;4983480;28;20084;-23
2021/07/04 11:28:49;;;;;;;1.52;0.70;;;24.60;59.70;;;;;;4898418;29;20078;-20
2021/07/04 11:31:17;;;;;;;0.80;0.70;;;24.60;59.30;;;;;;4896860;29;20044;-21
2021/07/04 11:33:47;;;;;;;2.10;0.60;;;24.60;59.00;;;;;;4896984;29;20894;-20
2021/07/04 11:36:15;;;;;;;0.43;0.40;;;24.70;58.90;;;;;;4897890;29;20044;-20
2021/07/04 11:38:55;;;;;;;0.55;0.50;;;24.60;58.60;;;;;;4899191;29;20071;-24
2021/07/04 11:41:27;;;;;;;0.50;0.50;;;24.70;58.50;;;;;;4897115;29;20040;-20
2021/07/04 11:44:14;;;;;;;0.93;0.52;;;24.70;58.60;;;;;;4883743;29;20092;-19
2021/07/04 11:46:46;;;;;;;0.75;0.50;;;24.70;58.70;;;;;;4894829;29;20063;-19
2021/07/04 11:49:16;;;;;;;0.70;0.40;;;24.70;58.50;;;;;;4894967;29;20227;-20
2021/07/04 11:51:52;;;;;;;1.13;0.50;;;24.70;58.30;;;;;;4893528;29;20472;-22
2021/07/04 11:54:24;;;;;;;0.55;0.52;;;24.70;58.30;;;;;;4895063;29;20128;-22
2021/07/04 12:00:04;;;;;;;0.60;0.50;;;24.80;57.50;;;;;;4559451;29;10000417;-24
2021/07/04 12:02:33;;;;;;;1.48;0.50;;;24.90;57.20;;;;;;4920816;28;20046;-37
2021/07/04 12:04:58;;;;;;;0.50;0.40;;;24.80;57.20;;;;;;4965062;28;20054;-29
2021/07/04 12:07:25;;;;;;;1.00;0.50;;;24.80;57.10;;;;;;4938071;28;20062;-23
2021/07/04 12:09:54;;;;;;;2.15;0.63;;;24.80;57.00;;;;;;4965286;28;20035;-23
2021/07/04 12:12:23;;;;;;;0.47;0.40;;;24.80;56.80;;;;;;4963720;28;20037;-23
2021/07/04 12:14:54;;;;;;;1.27;0.47;;;24.80;56.90;;;;;;4965336;28;20161;-24
2021/07/04 12:17:29;;;;;;;0.95;0.40;;;24.80;56.90;;;;;;4964908;28;20082;-22
2021/07/04 12:20:05;;;;;;;1.55;0.70;;;24.90;56.80;;;;;;4964641;28;20941;-23
2021/07/04 12:22:41;;;;;;;1.20;0.52;;;24.90;57.10;;;;;;4961711;28;20089;-24
2021/07/04 12:25:33;;;;;;;0.93;0.40;;;24.90;57.00;;;;;;4954950;28;20043;-23
2021/07/04 12:28:06;;;;;;;0.93;0.50;;;24.80;56.90;;;;;;4962155;28;20125;-24
2021/07/04 12:30:32;;;;;;;2.03;0.63;;;24.80;57.30;;;;;;4962617;28;20291;-23
2021/07/04 12:33:01;;;;;;;0.52;0.32;;;24.80;56.70;;;;;;4970478;23;20137;-23
2021/07/04 12:35:38;;;;;;;0.47;0.30;;;24.90;56.50;;;;;;4963415;28;20058;-24
2021/07/04 12:38:21;;;;;;;0.88;0.50;;;25.00;56.00;;;;;;4952566;28;20062;-23
2021/07/04 12:40:59;;;;;;;0.97;0.40;;;24.90;56.00;;;;;;4963895;28;20431;-24
2021/07/04 12:43:32;;;;;;;0.90;0.50;;;24.90;56.40;;;;;;4961838;28;20076;-25
2021/07/04 12:45:59;;;;;;;0.97;0.60;;;25.00;56.60;;;;;;4964429;28;20038;-24
2021/07/04 12:48:25;;;;;;;0.98;0.52;;;24.90;56.90;;;;;;4954028;28;20031;-24
2021/07/04 12:50:59;;;;;;;0.50;0.50;;;24.90;57.20;;;;;;4964638;28;20320;-21